Terminal Aerodrome Forecast
Issued by NWS

Home | Current Version | Previous Version | Graphics & Text | Print | Product List | Glossary On
Versions: 1 2 3 4 5 6 7 8 9 10 11 12 13 14 15 16 17 18
000
FTUS43 KMPX 252300 RRA
TAFRNH
TAF
KRNH 252339Z 2600/2624 05003KT 5SM -RASN OVC015
     FM260400 03005KT 6SM BR OVC015
      TEMPO 2606/2610 5SM -SN OVC009
     FM261000 36007KT 6SM -SHSN BR OVC008
     FM261800 34008KT P6SM OVC015=

USA.gov is the U.S. government's official web portal to all federal, state and local government web resources and services.